createdAt,value
2019-01-12T00:00:43.108Z,43.17
2019-01-12T00:01:43.060Z,43.17
2019-01-12T00:02:43.011Z,43.17
2019-01-12T00:03:42.962Z,43.17
2019-01-12T00:04:42.911Z,43.17
2019-01-12T00:05:42.863Z,43.65
2019-01-12T00:06:42.816Z,43.27
2019-01-12T00:07:42.765Z,43.36
2019-01-12T00:08:42.715Z,43.07
2019-01-12T00:09:42.667Z,43.17
2019-01-12T00:10:42.617Z,43.07
2019-01-12T00:11:42.568Z,43.17
2019-01-12T00:12:42.569Z,43.07
2019-01-12T00:13:42.474Z,43.17
2019-01-12T00:14:42.420Z,43.17
2019-01-12T00:15:42.371Z,43.07
2019-01-12T00:16:42.322Z,43.07
2019-01-12T00:17:42.273Z,43.46
2019-01-12T00:18:42.224Z,43.17
2019-01-12T00:19:42.174Z,43.17
2019-01-12T00:20:42.125Z,43.36
2019-01-12T00:21:42.075Z,43.17
2019-01-12T00:22:42.027Z,43.27
2019-01-12T00:23:41.978Z,43.17
2019-01-12T00:24:41.928Z,43.27
2019-01-12T00:25:41.879Z,43.07
2019-01-12T00:26:41.829Z,43.17
2019-01-12T00:27:41.778Z,43.27
2019-01-12T00:28:41.731Z,43.27
2019-01-12T00:29:41.683Z,43.46
2019-01-12T00:30:41.633Z,43.27
2019-01-12T00:31:41.583Z,43.27
2019-01-12T00:32:41.584Z,43.17
2019-01-12T00:33:41.485Z,43.07
2019-01-12T00:34:41.439Z,43.07
2019-01-12T00:35:41.386Z,42.98
2019-01-12T00:36:41.336Z,43.17
2019-01-12T00:37:41.288Z,42.98
2019-01-12T00:38:41.239Z,43.17
2019-01-12T00:39:41.190Z,43.27
2019-01-12T00:40:41.140Z,43.07
2019-01-12T00:41:41.091Z,43.17
2019-01-12T00:42:41.042Z,43.27
2019-01-12T00:43:40.992Z,43.07
2019-01-12T00:44:40.943Z,43.27
2019-01-12T00:45:40.893Z,43.27
2019-01-12T00:46:40.845Z,43.27
2019-01-12T00:47:40.795Z,43.17
2019-01-12T00:48:40.745Z,43.17
2019-01-12T00:49:40.697Z,43.05
2019-01-12T00:50:40.648Z,43.17
2019-01-12T00:51:40.649Z,43.07
2019-01-12T00:52:40.549Z,42.98
2019-01-12T00:53:40.500Z,43.17
2019-01-12T00:54:40.454Z,43.07
2019-01-12T00:55:40.402Z,43.07
2019-01-12T00:56:40.352Z,43.17
2019-01-12T00:57:40.306Z,43.07
2019-01-12T00:58:40.254Z,43.27
2019-01-12T00:59:40.204Z,43.17
2019-01-12T01:00:40.155Z,43.07
2019-01-12T01:01:40.107Z,43.07
2019-01-12T01:02:40.058Z,43.27
2019-01-12T01:03:40.009Z,43.17
2019-01-12T01:04:39.958Z,43.17
2019-01-12T01:05:39.908Z,43.24
2019-01-12T01:06:39.861Z,43.46
2019-01-12T01:07:39.815Z,43.46
2019-01-12T01:08:39.766Z,43.46
2019-01-12T01:09:39.714Z,43.27
2019-01-12T01:10:39.664Z,43.46
2019-01-12T01:11:39.614Z,42.98
2019-01-12T01:12:39.565Z,42.98
2019-01-12T01:13:39.519Z,43.07
2019-01-12T01:14:39.467Z,42.79
2019-01-12T01:15:39.416Z,42.98
2019-01-12T01:16:39.368Z,42.88
2019-01-12T01:17:39.319Z,43.07
2019-01-12T01:18:39.270Z,42.88
2019-01-12T01:19:39.222Z,43.07
2019-01-12T01:20:39.171Z,43.07
2019-01-12T01:21:39.124Z,43.55
2019-01-12T01:22:39.073Z,43.07
2019-01-12T01:23:39.023Z,43.46
2019-01-12T01:24:45.605Z,43.07
2019-01-12T01:25:38.925Z,43.65
2019-01-12T01:26:38.876Z,43.55
2019-01-12T01:27:38.825Z,43.07
2019-01-12T01:28:38.777Z,43.27
2019-01-12T01:29:38.728Z,42.98
2019-01-12T01:30:38.679Z,42.79
2019-01-12T01:31:38.634Z,42.79
2019-01-12T01:32:38.580Z,42.88
2019-01-12T01:33:38.531Z,42.88
2019-01-12T01:34:38.482Z,42.79
2019-01-12T01:35:38.439Z,42.88
2019-01-12T01:36:38.383Z,42.79
2019-01-12T01:37:38.335Z,42.79
2019-01-12T01:38:38.285Z,42.88
2019-01-12T01:39:38.237Z,42.88
2019-01-12T01:40:38.186Z,42.98
2019-01-12T01:41:38.137Z,42.69
2019-01-12T01:42:38.088Z,42.69
2019-01-12T01:43:38.038Z,42.79
2019-01-12T01:44:37.990Z,42.69
2019-01-12T01:45:37.940Z,42.69
2019-01-12T01:46:37.890Z,42.60
2019-01-12T01:47:37.841Z,42.60
2019-01-12T01:48:37.795Z,42.60
2019-01-12T01:49:37.743Z,42.79
2019-01-12T01:50:37.694Z,42.60
2019-01-12T01:51:37.647Z,42.79
2019-01-12T01:52:37.595Z,42.60
2019-01-12T01:53:37.596Z,42.69
2019-01-12T01:54:37.498Z,42.60
2019-01-12T01:55:37.450Z,42.40
2019-01-12T01:56:37.399Z,42.69
2019-01-12T01:57:37.349Z,42.69
2019-01-12T01:58:37.300Z,42.79
2019-01-12T01:59:37.250Z,42.60
2019-01-12T02:00:37.200Z,42.69
2019-01-12T02:01:37.152Z,42.50
2019-01-12T02:02:37.102Z,42.69
2019-01-12T02:03:37.053Z,42.50
2019-01-12T02:04:37.004Z,42.50
2019-01-12T02:05:36.955Z,42.69
2019-01-12T02:06:36.911Z,42.60
2019-01-12T02:07:36.857Z,42.50
2019-01-12T02:08:36.807Z,42.50
2019-01-12T02:09:36.758Z,42.50
2019-01-12T02:10:36.709Z,42.40
2019-01-12T02:11:36.659Z,42.50
2019-01-12T02:12:36.610Z,42.50
2019-01-12T02:13:36.611Z,42.40
2019-01-12T02:14:36.512Z,42.50
2019-01-12T02:15:36.463Z,42.50
2019-01-12T02:16:36.412Z,42.30
2019-01-12T02:17:36.365Z,42.30
2019-01-12T02:18:36.315Z,42.50
2019-01-12T02:19:36.265Z,42.40
2019-01-12T02:20:36.216Z,42.60
2019-01-12T02:21:36.168Z,42.50
2019-01-12T02:22:36.119Z,42.38
2019-01-12T02:23:36.168Z,42.38
2019-01-12T02:24:36.019Z,42.47
2019-01-12T02:25:35.970Z,42.38
2019-01-12T02:26:35.920Z,42.38
2019-01-12T02:27:35.871Z,42.47
2019-01-12T02:28:35.822Z,42.50
2019-01-12T02:29:35.774Z,42.40
2019-01-12T02:30:35.723Z,42.30
2019-01-12T02:31:35.675Z,42.30
2019-01-12T02:32:35.625Z,42.50
2019-01-12T02:33:35.629Z,42.30
2019-01-12T02:34:35.577Z,42.29
2019-01-12T02:35:35.476Z,42.30
2019-01-12T02:36:35.428Z,42.40
2019-01-12T02:37:35.379Z,42.40
2019-01-12T02:38:35.333Z,42.40
2019-01-12T02:39:35.294Z,42.38
2019-01-12T02:40:35.233Z,42.47
2019-01-12T02:41:35.182Z,42.38
2019-01-12T02:42:35.133Z,42.38
2019-01-12T02:43:35.091Z,42.47
2019-01-12T02:44:35.034Z,42.38
2019-01-12T02:45:34.985Z,42.40
2019-01-12T02:46:34.936Z,42.50
2019-01-12T02:47:34.901Z,42.29
2019-01-12T02:48:34.837Z,42.38
2019-01-12T02:49:34.789Z,42.29
2019-01-12T02:50:34.740Z,42.21
2019-01-12T02:51:34.688Z,42.29
2019-01-12T02:52:34.643Z,42.38
2019-01-12T02:53:34.592Z,42.29
2019-01-12T02:54:34.594Z,42.38
2019-01-12T02:55:34.492Z,42.19
2019-01-12T02:56:34.443Z,42.38
2019-01-12T02:57:34.393Z,42.47
2019-01-12T02:58:34.345Z,42.38
2019-01-12T02:59:34.294Z,42.29
2019-01-12T03:00:34.245Z,42.30
2019-01-12T03:01:34.197Z,42.30
2019-01-12T03:02:34.148Z,42.29
2019-01-12T03:03:34.100Z,42.21
2019-01-12T03:04:34.051Z,42.30
2019-01-12T03:05:34.006Z,42.30
2019-01-12T03:06:33.951Z,42.40
2019-01-12T03:07:33.901Z,42.50
2019-01-12T03:08:33.859Z,42.47
2019-01-12T03:09:33.803Z,42.47
2019-01-12T03:10:33.754Z,42.02
2019-01-12T03:11:33.706Z,42.10
2019-01-12T03:12:33.656Z,42.02
2019-01-12T03:13:33.606Z,42.10
2019-01-12T03:14:33.557Z,42.00
2019-01-12T03:15:33.508Z,42.10
2019-01-12T03:16:33.458Z,42.47
2019-01-12T03:17:33.410Z,42.47
2019-01-12T03:18:33.360Z,42.11
2019-01-12T03:19:33.313Z,42.00
2019-01-12T03:20:33.266Z,42.02
2019-01-12T03:21:33.215Z,42.11
2019-01-12T03:22:33.180Z,41.90
2019-01-12T03:23:33.112Z,42.10
2019-01-12T03:24:33.064Z,42.10
2019-01-12T03:25:33.017Z,42.38
2019-01-12T03:26:32.969Z,42.00
2019-01-12T03:27:32.921Z,42.00
2019-01-12T03:28:32.868Z,42.10
2019-01-12T03:29:32.827Z,42.02
2019-01-12T03:30:32.777Z,42.10
2019-01-12T03:31:32.723Z,42.38
2019-01-12T03:32:32.670Z,42.00
2019-01-12T03:33:32.625Z,42.00
2019-01-12T03:34:32.574Z,42.00
2019-01-12T03:35:32.522Z,42.02
2019-01-12T03:36:32.473Z,42.02
2019-01-12T03:37:32.423Z,42.10
2019-01-12T03:38:32.375Z,41.93
2019-01-12T03:39:32.331Z,41.90
2019-01-12T03:40:32.278Z,42.02
2019-01-12T03:41:32.227Z,42.10
2019-01-12T03:42:32.177Z,42.00
2019-01-12T03:43:32.128Z,42.00
2019-01-12T03:44:32.078Z,42.00
2019-01-12T03:45:32.045Z,41.90
2019-01-12T03:46:31.982Z,42.00
2019-01-12T03:47:31.930Z,42.10
2019-01-12T03:48:31.880Z,42.10
2019-01-12T03:49:31.835Z,42.10
2019-01-12T03:50:31.783Z,41.90
2019-01-12T03:51:31.733Z,42.10
2019-01-12T03:52:31.684Z,42.00
2019-01-12T03:53:31.638Z,42.10
2019-01-12T03:54:31.589Z,42.10
2019-01-12T03:55:31.536Z,42.10
2019-01-12T03:56:31.486Z,42.00
2019-01-12T03:57:31.439Z,42.00
2019-01-12T03:58:31.389Z,42.10
2019-01-12T03:59:31.338Z,42.19
2019-01-12T04:00:31.288Z,42.00
2019-01-12T04:01:31.240Z,42.00
2019-01-12T04:02:31.191Z,42.10
2019-01-12T04:03:31.141Z,42.19
2019-01-12T04:04:31.248Z,42.00
2019-01-12T04:05:31.043Z,42.00
2019-01-12T04:06:30.994Z,42.10
2019-01-12T04:07:30.943Z,41.90
2019-01-12T04:08:30.896Z,42.10
2019-01-12T04:09:30.846Z,42.10
2019-01-12T04:10:30.797Z,42.10
2019-01-12T04:11:30.747Z,42.00
2019-01-12T04:12:30.698Z,42.11
2019-01-12T04:13:30.649Z,42.00
2019-01-12T04:14:30.600Z,42.00
2019-01-12T04:15:30.600Z,42.10
2019-01-12T04:16:30.501Z,42.10
2019-01-12T04:17:30.451Z,42.10
2019-01-12T04:18:30.403Z,42.10
2019-01-12T04:19:30.354Z,42.29
2019-01-12T04:20:30.304Z,42.19
2019-01-12T04:21:30.254Z,42.29
2019-01-12T04:22:30.207Z,42.10
2019-01-12T04:23:30.156Z,42.10
2019-01-12T04:24:30.107Z,42.10
2019-01-12T04:25:33.843Z,42.10
2019-01-12T04:26:30.009Z,42.29
2019-01-12T04:27:29.959Z,42.19
2019-01-12T04:28:29.909Z,42.29
2019-01-12T04:29:29.861Z,42.29
2019-01-12T04:30:29.811Z,42.21
2019-01-12T04:31:29.764Z,42.19
2019-01-12T04:32:29.712Z,42.19
2019-01-12T04:33:29.663Z,42.19
2019-01-12T04:34:29.615Z,42.29
2019-01-12T04:35:29.615Z,42.19
2019-01-12T04:36:29.520Z,42.38
2019-01-12T04:37:29.467Z,42.29
2019-01-12T04:38:29.418Z,42.29
2019-01-12T04:39:29.367Z,42.29
2019-01-12T04:40:29.319Z,42.19
2019-01-12T04:41:29.273Z,42.29
2019-01-12T04:42:29.221Z,42.29
2019-01-12T04:43:29.170Z,42.29
2019-01-12T04:44:29.122Z,42.19
2019-01-12T04:45:29.072Z,42.21
2019-01-12T04:46:29.026Z,42.30
2019-01-12T04:47:28.973Z,42.38
2019-01-12T04:48:28.930Z,42.29
2019-01-12T04:49:28.875Z,42.29
2019-01-12T04:50:28.831Z,42.29
2019-01-12T04:51:28.779Z,42.21
2019-01-12T04:52:28.727Z,42.19
2019-01-12T04:53:28.681Z,42.19
2019-01-12T04:54:28.628Z,42.00
2019-01-12T04:55:28.628Z,42.29
2019-01-12T04:56:28.531Z,42.10
2019-01-12T04:57:28.479Z,42.29
2019-01-12T04:58:28.433Z,42.00
2019-01-12T04:59:28.381Z,42.00
2019-01-12T05:00:28.333Z,42.00
2019-01-12T05:01:28.284Z,42.00
2019-01-12T05:02:28.235Z,41.80
2019-01-12T05:03:28.183Z,42.10
2019-01-12T05:04:28.136Z,42.29
2019-01-12T05:05:28.086Z,41.80
2019-01-12T05:06:28.039Z,42.00
2019-01-12T05:07:27.987Z,42.19
2019-01-12T05:08:27.939Z,41.93
2019-01-12T05:09:27.895Z,41.90
2019-01-12T05:10:27.840Z,41.90
2019-01-12T05:11:27.789Z,41.90
2019-01-12T05:12:27.741Z,41.90
2019-01-12T05:13:27.704Z,41.80
2019-01-12T05:14:27.644Z,41.83
2019-01-12T05:15:27.594Z,41.90
2019-01-12T05:16:27.544Z,41.90
2019-01-12T05:17:27.495Z,42.00
2019-01-12T05:18:27.446Z,42.00
2019-01-12T05:19:27.395Z,42.10
2019-01-12T05:20:27.347Z,41.80
2019-01-12T05:21:27.305Z,41.73
2019-01-12T05:22:27.250Z,41.71
2019-01-12T05:23:27.199Z,41.90
2019-01-12T05:24:27.151Z,41.71
2019-01-12T05:25:27.103Z,41.71
2019-01-12T05:26:27.051Z,41.71
2019-01-12T05:27:27.001Z,41.73
2019-01-12T05:28:26.952Z,41.61
2019-01-12T05:29:26.905Z,41.90
2019-01-12T05:30:26.854Z,42.00
2019-01-12T05:31:26.807Z,41.90
2019-01-12T05:32:26.755Z,41.90
2019-01-12T05:33:26.707Z,41.90
2019-01-12T05:34:26.657Z,41.90
2019-01-12T05:35:26.609Z,41.80
2019-01-12T05:36:26.610Z,42.00
2019-01-12T05:37:26.509Z,41.71
2019-01-12T05:38:26.460Z,41.90
2019-01-12T05:39:26.410Z,41.71
2019-01-12T05:40:26.361Z,41.80
2019-01-12T05:41:26.311Z,42.00
2019-01-12T05:42:26.265Z,41.90
2019-01-12T05:43:26.213Z,41.71
2019-01-12T05:44:26.164Z,41.71
2019-01-12T05:45:26.116Z,41.93
2019-01-12T05:46:26.066Z,41.90
2019-01-12T05:47:26.019Z,41.61
2019-01-12T05:48:25.968Z,41.83
2019-01-12T05:49:25.922Z,41.90
2019-01-12T05:50:25.869Z,41.90
2019-01-12T05:51:25.819Z,41.90
2019-01-12T05:52:25.769Z,41.90
2019-01-12T05:53:25.721Z,41.80
2019-01-12T05:54:25.672Z,41.52
2019-01-12T05:55:25.623Z,41.80
2019-01-12T05:56:25.623Z,41.83
2019-01-12T05:57:25.575Z,41.61
2019-01-12T05:58:25.474Z,41.52
2019-01-12T05:59:25.424Z,41.73
2019-01-12T06:00:25.375Z,41.61
2019-01-12T06:01:25.326Z,41.06
2019-01-12T06:02:25.278Z,41.61
2019-01-12T06:03:25.227Z,41.61
2019-01-12T06:04:25.178Z,41.61
2019-01-12T06:05:25.130Z,41.52
2019-01-12T06:06:25.080Z,41.63
2019-01-12T06:07:25.030Z,41.42
2019-01-12T06:08:24.981Z,41.52
2019-01-12T06:09:24.934Z,41.61
2019-01-12T06:10:24.883Z,41.61
2019-01-12T06:11:24.832Z,41.61
2019-01-12T06:12:24.783Z,41.61
2019-01-12T06:13:24.735Z,41.52
2019-01-12T06:14:24.688Z,41.52
2019-01-12T06:15:24.636Z,41.71
2019-01-12T06:16:24.587Z,41.61
2019-01-12T06:17:24.536Z,41.52
2019-01-12T06:18:24.489Z,41.73
2019-01-12T06:19:24.438Z,41.61
2019-01-12T06:20:24.389Z,41.61
2019-01-12T06:21:24.341Z,41.13
2019-01-12T06:22:24.291Z,41.16
2019-01-12T06:23:24.241Z,41.16
2019-01-12T06:24:24.192Z,41.13
2019-01-12T06:25:24.144Z,40.94
2019-01-12T06:26:24.094Z,41.06
2019-01-12T06:27:24.044Z,40.94
2019-01-12T06:28:23.995Z,40.94
2019-01-12T06:29:23.946Z,41.44
2019-01-12T06:30:23.897Z,41.35
2019-01-12T06:31:23.847Z,41.23
2019-01-12T06:32:23.799Z,41.33
2019-01-12T06:33:23.749Z,41.04
2019-01-12T06:34:23.700Z,40.94
2019-01-12T06:35:23.650Z,41.13
2019-01-12T06:36:23.601Z,41.04
2019-01-12T06:37:23.602Z,40.94
2019-01-12T06:38:23.502Z,40.94
2019-01-12T06:39:23.453Z,41.23
2019-01-12T06:40:23.404Z,41.44
2019-01-12T06:41:23.354Z,41.16
2019-01-12T06:42:23.306Z,41.23
2019-01-12T06:43:23.255Z,41.42
2019-01-12T06:44:23.211Z,41.04
2019-01-12T06:45:23.157Z,41.42
2019-01-12T06:46:23.108Z,40.94
2019-01-12T06:47:23.057Z,41.13
2019-01-12T06:48:23.058Z,41.42
2019-01-12T06:49:22.961Z,41.52
2019-01-12T06:50:22.911Z,41.33
2019-01-12T06:51:22.861Z,41.13
2019-01-12T06:52:22.812Z,41.13
2019-01-12T06:53:22.765Z,41.04
2019-01-12T06:54:22.720Z,41.04
2019-01-12T06:55:22.663Z,41.42
2019-01-12T06:56:22.618Z,41.04
2019-01-12T06:57:22.617Z,41.13
2019-01-12T06:58:22.517Z,41.04
2019-01-12T06:59:22.467Z,40.94
2019-01-12T07:00:22.418Z,41.04
2019-01-12T07:01:22.685Z,41.04
2019-01-12T07:02:22.318Z,41.13
2019-01-12T07:03:22.271Z,41.23
2019-01-12T07:04:22.220Z,41.04
2019-01-12T07:05:22.171Z,41.04
2019-01-12T07:06:22.123Z,41.04
2019-01-12T07:07:22.072Z,41.04
2019-01-12T07:08:22.022Z,41.13
2019-01-12T07:09:21.974Z,41.04
2019-01-12T07:10:21.925Z,41.13
2019-01-12T07:11:21.875Z,41.04
2019-01-12T07:12:21.826Z,41.13
2019-01-12T07:13:21.777Z,41.13
2019-01-12T07:14:21.728Z,40.94
2019-01-12T07:15:21.682Z,41.33
2019-01-12T07:16:21.629Z,41.04
2019-01-12T07:17:21.581Z,41.04
2019-01-12T07:18:21.531Z,41.04
2019-01-12T07:19:21.480Z,41.23
2019-01-12T07:20:21.434Z,41.23
2019-01-12T07:21:21.387Z,41.04
2019-01-12T07:22:21.334Z,41.23
2019-01-12T07:23:21.283Z,41.23
2019-01-12T07:24:21.235Z,41.23
2019-01-12T07:25:21.185Z,41.23
2019-01-12T07:26:21.135Z,41.23
2019-01-12T07:27:21.086Z,41.42
2019-01-12T07:28:21.038Z,41.33
2019-01-12T07:29:20.989Z,41.13
2019-01-12T07:30:20.939Z,41.13
2019-01-12T07:31:20.889Z,41.04
2019-01-12T07:32:20.840Z,40.94
2019-01-12T07:33:20.838Z,40.96
2019-01-12T07:34:20.742Z,40.67
2019-01-12T07:35:20.696Z,40.77
2019-01-12T07:36:20.643Z,40.75
2019-01-12T07:37:20.644Z,40.87
2019-01-12T07:38:20.595Z,40.66
2019-01-12T07:39:20.495Z,40.84
2019-01-12T07:40:20.453Z,40.94
2019-01-12T07:41:20.397Z,40.84
2019-01-12T07:42:20.348Z,40.94
2019-01-12T07:43:20.298Z,41.13
2019-01-12T07:44:20.249Z,41.04
2019-01-12T07:45:20.200Z,41.04
2019-01-12T07:46:20.154Z,41.04
2019-01-12T07:47:20.111Z,41.13
2019-01-12T07:48:20.060Z,40.84
2019-01-12T07:49:20.003Z,40.94
2019-01-12T07:50:19.954Z,40.94
2019-01-12T07:51:19.905Z,40.75
2019-01-12T07:52:19.855Z,40.66
2019-01-12T07:53:19.805Z,41.42
2019-01-12T07:54:19.757Z,40.66
2019-01-12T07:55:19.707Z,40.66
2019-01-12T07:56:24.420Z,40.94
2019-01-12T07:57:19.614Z,40.96
2019-01-12T07:58:19.608Z,40.84
2019-01-12T07:59:19.509Z,40.94
2019-01-12T08:00:19.462Z,41.04
2019-01-12T08:01:19.411Z,40.75
2019-01-12T08:02:19.361Z,41.25
2019-01-12T08:03:19.312Z,40.84
2019-01-12T08:04:19.265Z,41.16
2019-01-12T08:05:19.215Z,40.84
2019-01-12T08:06:19.166Z,40.96
2019-01-12T08:07:19.114Z,40.66
2019-01-12T08:08:19.066Z,40.67
2019-01-12T08:09:19.017Z,40.66
2019-01-12T08:10:18.968Z,40.66
2019-01-12T08:11:18.918Z,40.75
2019-01-12T08:12:18.869Z,40.66
2019-01-12T08:13:18.820Z,40.75
2019-01-12T08:14:18.771Z,40.66
2019-01-12T08:15:18.720Z,40.56
2019-01-12T08:16:18.672Z,40.66
2019-01-12T08:17:18.623Z,40.94
2019-01-12T08:18:18.626Z,40.94
2019-01-12T08:19:18.524Z,40.87
2019-01-12T08:20:18.477Z,41.13
2019-01-12T08:21:18.425Z,41.25
2019-01-12T08:22:18.377Z,40.96
2019-01-12T08:23:18.332Z,41.23
2019-01-12T08:24:18.278Z,41.16
2019-01-12T08:25:18.230Z,41.25
2019-01-12T08:26:18.181Z,40.96
2019-01-12T08:27:18.129Z,40.75
2019-01-12T08:28:18.088Z,40.77
2019-01-12T08:29:18.034Z,40.94
2019-01-12T08:30:17.983Z,41.06
2019-01-12T08:31:17.933Z,41.04
2019-01-12T08:32:17.884Z,41.16
2019-01-12T08:33:17.835Z,40.96
2019-01-12T08:34:17.786Z,40.96
2019-01-12T08:35:17.736Z,41.04
2019-01-12T08:36:17.688Z,41.04
2019-01-12T08:37:17.640Z,40.94
2019-01-12T08:38:17.589Z,41.04
2019-01-12T08:39:17.539Z,41.04
2019-01-12T08:40:17.490Z,41.04
2019-01-12T08:41:17.441Z,40.84
2019-01-12T08:42:17.392Z,41.04
2019-01-12T08:43:17.342Z,41.04
2019-01-12T08:44:17.293Z,40.87
2019-01-12T08:45:17.245Z,41.04
2019-01-12T08:46:17.196Z,41.13
2019-01-12T08:47:17.144Z,41.06
2019-01-12T08:48:17.100Z,41.33
2019-01-12T08:49:17.053Z,41.13
2019-01-12T08:50:16.999Z,40.94
2019-01-12T08:51:16.949Z,40.96
2019-01-12T08:52:16.900Z,41.33
2019-01-12T08:53:16.851Z,41.13
2019-01-12T08:54:16.802Z,41.04
2019-01-12T08:55:16.758Z,41.33
2019-01-12T08:56:16.702Z,41.23
2019-01-12T08:57:16.660Z,40.94
2019-01-12T08:58:16.606Z,41.25
2019-01-12T08:59:16.605Z,41.25
2019-01-12T09:00:16.505Z,41.04
2019-01-12T09:01:16.773Z,41.06
2019-01-12T09:02:16.408Z,41.16
2019-01-12T09:03:16.358Z,41.04
2019-01-12T09:04:16.309Z,40.96
2019-01-12T09:05:16.260Z,41.06
2019-01-12T09:06:16.220Z,41.06
2019-01-12T09:07:16.211Z,41.16
2019-01-12T09:08:16.112Z,41.06
2019-01-12T09:09:16.064Z,41.16
2019-01-12T09:10:16.019Z,41.16
2019-01-12T09:11:15.964Z,41.06
2019-01-12T09:12:15.915Z,41.06
2019-01-12T09:13:15.866Z,41.06
2019-01-12T09:14:15.819Z,40.87
2019-01-12T09:15:15.766Z,41.06
2019-01-12T09:16:15.763Z,40.87
2019-01-12T09:17:15.670Z,41.04
2019-01-12T09:18:15.621Z,41.06
2019-01-12T09:19:15.571Z,41.16
2019-01-12T09:20:15.525Z,41.25
2019-01-12T09:21:15.472Z,41.23
2019-01-12T09:22:15.423Z,40.96
2019-01-12T09:23:15.374Z,41.06
2019-01-12T09:24:15.325Z,41.33
2019-01-12T09:25:15.276Z,41.04
2019-01-12T09:26:15.226Z,41.06
2019-01-12T09:27:15.176Z,40.96
2019-01-12T09:28:15.129Z,40.94
2019-01-12T09:29:15.090Z,41.23
2019-01-12T09:30:15.030Z,40.96
2019-01-12T09:31:14.980Z,40.96
2019-01-12T09:32:14.931Z,40.94
2019-01-12T09:33:14.883Z,40.96
2019-01-12T09:34:14.832Z,40.94
2019-01-12T09:35:14.783Z,40.84
2019-01-12T09:36:14.734Z,40.94
2019-01-12T09:37:14.685Z,40.94
2019-01-12T09:38:14.636Z,40.58
2019-01-12T09:39:14.586Z,40.84
2019-01-12T09:40:14.540Z,40.66
2019-01-12T09:41:14.488Z,40.87
2019-01-12T09:42:14.439Z,41.04
2019-01-12T09:43:14.391Z,40.75
2019-01-12T09:44:14.341Z,40.94
2019-01-12T09:45:14.291Z,40.96
2019-01-12T09:46:14.242Z,40.96
2019-01-12T09:47:14.202Z,40.87
2019-01-12T09:48:14.144Z,40.87
2019-01-12T09:49:14.100Z,41.13
2019-01-12T09:50:14.046Z,40.77
2019-01-12T09:51:14.001Z,40.96
2019-01-12T09:52:13.947Z,41.06
2019-01-12T09:53:13.898Z,40.96
2019-01-12T09:54:13.849Z,40.77
2019-01-12T09:55:13.799Z,40.87
2019-01-12T09:56:13.750Z,40.96
2019-01-12T09:57:13.701Z,40.96
2019-01-12T09:58:13.655Z,41.06
2019-01-12T09:59:13.602Z,40.96
2019-01-12T10:00:13.552Z,41.06
2019-01-12T10:01:13.506Z,41.25
2019-01-12T10:02:13.458Z,41.06
2019-01-12T10:03:13.406Z,41.16
2019-01-12T10:04:13.357Z,41.06
2019-01-12T10:05:13.308Z,40.96
2019-01-12T10:06:13.261Z,41.06
2019-01-12T10:07:13.209Z,40.96
2019-01-12T10:08:13.162Z,41.06
2019-01-12T10:09:13.111Z,41.06
2019-01-12T10:10:13.062Z,41.06
2019-01-12T10:11:13.012Z,40.87
2019-01-12T10:12:12.962Z,41.16
2019-01-12T10:13:12.915Z,41.06
2019-01-12T10:14:12.864Z,41.06
2019-01-12T10:15:12.814Z,41.16
2019-01-12T10:16:12.765Z,41.06
2019-01-12T10:17:12.718Z,41.06
2019-01-12T10:18:12.668Z,40.96
2019-01-12T10:19:12.669Z,40.87
2019-01-12T10:20:12.570Z,41.06
2019-01-12T10:21:12.521Z,41.16
2019-01-12T10:22:12.472Z,41.16
2019-01-12T10:23:12.421Z,41.16
2019-01-12T10:24:12.376Z,40.96
2019-01-12T10:25:12.641Z,41.16
2019-01-12T10:26:12.275Z,41.06
2019-01-12T10:27:12.226Z,40.96
2019-01-12T10:28:12.177Z,41.16
2019-01-12T10:29:12.128Z,40.87
2019-01-12T10:30:12.078Z,40.96
2019-01-12T10:31:12.032Z,40.96
2019-01-12T10:32:11.981Z,41.16
2019-01-12T10:33:11.931Z,40.87
2019-01-12T10:34:11.950Z,41.06
2019-01-12T10:35:11.833Z,41.06
2019-01-12T10:36:11.784Z,40.96
2019-01-12T10:37:11.735Z,40.96
2019-01-12T10:38:11.686Z,40.77
2019-01-12T10:39:17.760Z,41.16
2019-01-12T10:40:11.588Z,41.06
2019-01-12T10:41:11.538Z,41.16
2019-01-12T10:42:11.490Z,40.87
2019-01-12T10:43:11.439Z,40.87
2019-01-12T10:44:11.391Z,41.06
2019-01-12T10:45:11.342Z,41.16
2019-01-12T10:46:11.293Z,41.25
2019-01-12T10:47:11.243Z,41.16
2019-01-12T10:48:11.196Z,41.25
2019-01-12T10:49:11.145Z,40.96
2019-01-12T10:50:11.097Z,41.16
2019-01-12T10:51:11.046Z,40.87
2019-01-12T10:52:10.997Z,40.87
2019-01-12T10:53:10.949Z,40.77
2019-01-12T10:54:10.901Z,40.87
2019-01-12T10:55:10.850Z,40.77
2019-01-12T10:56:10.801Z,40.77
2019-01-12T10:57:10.751Z,40.67
2019-01-12T10:58:10.702Z,40.87
2019-01-12T10:59:10.654Z,40.77
2019-01-12T11:00:10.605Z,40.58
2019-01-12T11:01:10.606Z,40.67
2019-01-12T11:02:10.507Z,40.77
2019-01-12T11:03:10.457Z,40.77
2019-01-12T11:04:10.408Z,40.67
2019-01-12T11:05:10.359Z,40.77
2019-01-12T11:06:10.310Z,40.87
2019-01-12T11:07:10.261Z,40.67
2019-01-12T11:08:10.210Z,40.77
2019-01-12T11:09:10.176Z,40.87
2019-01-12T11:10:10.114Z,40.87
2019-01-12T11:11:10.064Z,40.67
2019-01-12T11:12:10.016Z,40.77
2019-01-12T11:13:09.969Z,40.58
2019-01-12T11:14:09.921Z,40.77
2019-01-12T11:15:09.868Z,40.67
2019-01-12T11:16:09.819Z,40.67
2019-01-12T11:17:09.770Z,40.48
2019-01-12T11:18:09.721Z,40.67
2019-01-12T11:19:09.670Z,40.77
2019-01-12T11:20:09.623Z,40.67
2019-01-12T11:21:09.574Z,40.67
2019-01-12T11:22:09.525Z,40.77
2019-01-12T11:23:09.475Z,40.77
2019-01-12T11:24:09.426Z,40.67
2019-01-12T11:25:09.381Z,40.87
2019-01-12T11:26:09.329Z,40.67
2019-01-12T11:27:12.356Z,40.87
2019-01-12T11:28:09.233Z,40.58
2019-01-12T11:29:09.181Z,40.48
2019-01-12T11:30:09.132Z,40.77
2019-01-12T11:31:09.088Z,40.58
2019-01-12T11:32:09.032Z,40.39
2019-01-12T11:33:08.985Z,40.39
2019-01-12T11:34:08.940Z,40.58
2019-01-12T11:35:08.894Z,40.77
2019-01-12T11:36:08.838Z,40.77
2019-01-12T11:37:08.790Z,40.87
2019-01-12T11:38:08.740Z,40.87
2019-01-12T11:39:08.692Z,40.67
2019-01-12T11:40:08.642Z,40.67
2019-01-12T11:41:10.014Z,40.67
2019-01-12T11:42:08.593Z,40.67
2019-01-12T11:43:08.502Z,40.48
2019-01-12T11:44:08.450Z,40.67
2019-01-12T11:45:08.396Z,40.77
2019-01-12T11:46:08.348Z,40.96
2019-01-12T11:47:08.297Z,40.87
2019-01-12T11:48:08.251Z,40.77
2019-01-12T11:49:08.202Z,40.77
2019-01-12T11:50:08.150Z,40.58
2019-01-12T11:51:08.099Z,40.58
2019-01-12T11:52:08.367Z,40.58
2019-01-12T11:53:08.008Z,40.67
2019-01-12T11:54:07.954Z,40.58
2019-01-12T11:55:07.904Z,40.67
2019-01-12T11:56:07.864Z,40.77
2019-01-12T11:57:07.809Z,40.67
2019-01-12T11:58:07.758Z,40.67
2019-01-12T11:59:07.708Z,40.87
2019-01-12T12:00:07.659Z,40.48
2019-01-12T12:01:07.614Z,40.48
2019-01-12T12:02:07.612Z,40.67
2019-01-12T12:03:07.512Z,40.48
2019-01-12T12:04:07.462Z,40.67
2019-01-12T12:05:07.414Z,40.96
2019-01-12T12:06:07.369Z,40.96
2019-01-12T12:07:07.317Z,40.77
2019-01-12T12:08:07.269Z,40.67
2019-01-12T12:09:07.218Z,40.67
2019-01-12T12:10:07.171Z,40.77
2019-01-12T12:11:07.119Z,40.77
2019-01-12T12:12:07.070Z,40.67
2019-01-12T12:13:07.022Z,40.77
2019-01-12T12:14:06.973Z,40.67
2019-01-12T12:15:06.923Z,40.39
2019-01-12T12:16:07.582Z,40.48
2019-01-12T12:17:06.825Z,40.39
2019-01-12T12:18:06.776Z,40.58
2019-01-12T12:19:06.727Z,40.39
2019-01-12T12:20:06.677Z,40.48
2019-01-12T12:21:06.629Z,40.39
2019-01-12T12:22:06.580Z,40.67
2019-01-12T12:23:06.580Z,40.77
2019-01-12T12:24:06.481Z,40.39
2019-01-12T12:25:06.431Z,40.96
2019-01-12T12:26:06.386Z,40.39
2019-01-12T12:27:06.333Z,40.58
2019-01-12T12:28:06.284Z,40.77
2019-01-12T12:29:06.237Z,40.87
2019-01-12T12:30:06.188Z,40.77
2019-01-12T12:31:06.138Z,40.67
2019-01-12T12:32:06.089Z,40.77
2019-01-12T12:33:06.041Z,40.48
2019-01-12T12:34:05.991Z,40.39
2019-01-12T12:35:05.945Z,40.48
2019-01-12T12:36:05.893Z,40.39
2019-01-12T12:37:05.844Z,40.20
2019-01-12T12:38:05.795Z,40.67
2019-01-12T12:39:05.746Z,40.77
2019-01-12T12:40:05.697Z,40.48
2019-01-12T12:41:05.648Z,40.39
2019-01-12T12:42:05.599Z,40.39
2019-01-12T12:43:05.662Z,40.67
2019-01-12T12:44:05.502Z,40.39
2019-01-12T12:45:05.452Z,40.58
2019-01-12T12:46:05.403Z,40.48
2019-01-12T12:47:05.353Z,40.39
2019-01-12T12:48:05.304Z,40.87
2019-01-12T12:49:05.256Z,40.58
2019-01-12T12:50:05.207Z,40.77
2019-01-12T12:51:05.157Z,40.77
2019-01-12T12:52:05.108Z,40.48